createdAt,value
2022-12-18T00:00:10.600Z,8.07
2022-12-18T00:02:40.774Z,7.07
2022-12-18T00:05:09.911Z,7.00
2022-12-18T00:07:39.410Z,8.57
2022-12-18T00:10:09.222Z,7.78
2022-12-18T00:12:37.608Z,9.43
2022-12-18T00:15:06.910Z,8.10
2022-12-18T00:17:35.390Z,8.05
2022-12-18T00:20:05.873Z,8.32
2022-12-18T00:22:34.609Z,9.15
2022-12-18T00:25:03.259Z,8.55
2022-12-18T00:27:31.705Z,8.82
2022-12-18T00:30:00.349Z,9.73
2022-12-18T00:32:28.823Z,9.45
2022-12-18T00:34:57.208Z,9.10
2022-12-18T00:37:26.959Z,9.32
2022-12-18T00:39:55.402Z,8.80
2022-12-18T00:42:41.065Z,8.35
2022-12-18T00:45:12.962Z,8.05
2022-12-18T00:47:41.931Z,7.75
2022-12-18T00:50:11.464Z,6.43
2022-12-18T00:52:41.634Z,7.22
2022-12-18T00:55:10.255Z,5.63
2022-12-18T00:57:39.495Z,6.70
2022-12-18T01:00:11.401Z,5.88
2022-12-18T01:02:39.942Z,5.65
2022-12-18T01:05:09.286Z,7.72
2022-12-18T01:07:37.660Z,7.68
2022-12-18T01:10:09.997Z,8.32
2022-12-18T01:12:38.493Z,8.05
2022-12-18T01:15:09.130Z,6.43
2022-12-18T01:17:38.306Z,7.72
2022-12-18T01:20:08.184Z,5.97
2022-12-18T01:22:37.135Z,7.45
2022-12-18T01:25:07.832Z,6.90
2022-12-18T01:27:37.163Z,5.82
2022-12-18T01:30:06.540Z,4.80
2022-12-18T01:32:35.790Z,4.93
2022-12-18T01:35:04.674Z,4.95
2022-12-18T01:37:32.998Z,4.93
2022-12-18T01:40:01.404Z,4.82
2022-12-18T01:42:31.705Z,5.72
2022-12-18T01:45:03.893Z,6.50
2022-12-18T01:47:37.220Z,5.32
2022-12-18T01:50:09.414Z,5.05
2022-12-18T01:52:39.659Z,4.30
2022-12-18T01:55:10.472Z,4.97
2022-12-18T01:57:40.855Z,5.15
2022-12-18T02:00:12.480Z,5.68
2022-12-18T02:02:42.037Z,5.30
2022-12-18T02:05:11.614Z,4.40
2022-12-18T02:07:51.053Z,4.78
2022-12-18T02:10:27.437Z,3.42
2022-12-18T02:13:05.607Z,3.17
2022-12-18T02:15:41.534Z,3.58
2022-12-18T02:18:15.711Z,3.30
2022-12-18T02:20:50.329Z,2.60
2022-12-18T02:23:41.036Z,2.50
2022-12-18T02:26:22.658Z,2.80
2022-12-18T02:28:56.883Z,2.40
2022-12-18T02:31:28.533Z,1.92
2022-12-18T02:33:59.847Z,2.75
2022-12-18T02:36:30.922Z,3.65
2022-12-18T02:39:01.456Z,2.80
2022-12-18T02:41:32.656Z,2.47
2022-12-18T02:44:09.075Z,2.60
2022-12-18T02:46:40.363Z,3.13
2022-12-18T02:49:21.512Z,3.00
2022-12-18T02:51:55.165Z,3.28
2022-12-18T02:54:39.065Z,2.40
2022-12-18T02:57:18.594Z,2.70
2022-12-18T02:59:55.361Z,3.30
2022-12-18T03:02:32.891Z,5.50
2022-12-18T03:05:08.212Z,4.65
2022-12-18T03:07:41.471Z,4.65
2022-12-18T03:10:14.247Z,4.07
2022-12-18T03:12:50.057Z,2.63
2022-12-18T03:15:23.508Z,2.90
2022-12-18T03:18:02.610Z,3.67
2022-12-18T03:20:34.697Z,2.95
2022-12-18T03:23:10.646Z,2.85
2022-12-18T03:25:43.202Z,2.50
2022-12-18T03:28:16.875Z,2.00
2022-12-18T03:30:47.025Z,2.30
2022-12-18T03:33:21.680Z,2.67
2022-12-18T03:35:50.755Z,2.25
2022-12-18T03:38:19.266Z,2.28
2022-12-18T03:40:56.332Z,2.13
2022-12-18T03:43:35.710Z,2.25
2022-12-18T03:46:10.369Z,1.88
2022-12-18T03:48:44.308Z,1.67
2022-12-18T03:51:19.392Z,1.63
2022-12-18T03:53:54.800Z,1.63
2022-12-18T03:56:25.230Z,1.70
2022-12-18T03:58:57.338Z,1.77
2022-12-18T04:01:31.508Z,1.80
2022-12-18T04:04:02.641Z,1.85
2022-12-18T04:06:32.364Z,1.80
2022-12-18T04:09:01.440Z,2.13
2022-12-18T04:11:30.091Z,2.13
2022-12-18T04:14:02.726Z,2.33
2022-12-18T04:16:34.331Z,1.90
2022-12-18T04:19:02.869Z,1.75
2022-12-18T04:21:31.412Z,2.38
2022-12-18T04:23:59.796Z,1.83
2022-12-18T04:26:28.277Z,2.30
2022-12-18T04:28:56.746Z,2.28
2022-12-18T04:31:26.695Z,1.80
2022-12-18T04:33:55.152Z,9.95
2022-12-18T04:36:23.515Z,34.30
2022-12-18T04:38:52.062Z,39.88
2022-12-18T04:41:20.418Z,54.45
2022-12-18T04:43:48.875Z,48.00
2022-12-18T04:46:17.522Z,31.83
2022-12-18T04:48:48.981Z,28.48
2022-12-18T04:51:20.855Z,28.88
2022-12-18T04:53:53.144Z,14.45
2022-12-18T04:56:21.731Z,14.18
2022-12-18T04:58:50.359Z,15.90
2022-12-18T05:01:20.439Z,14.02
2022-12-18T05:03:50.711Z,8.25
2022-12-18T05:06:19.162Z,7.53
2022-12-18T05:08:47.716Z,8.63
2022-12-18T05:11:17.906Z,7.07
2022-12-18T05:13:48.031Z,5.95
2022-12-18T05:16:17.406Z,4.47
2022-12-18T05:18:46.673Z,6.53
2022-12-18T05:21:16.599Z,6.13
2022-12-18T05:23:45.054Z,4.30
2022-12-18T05:26:18.214Z,2.70
2022-12-18T05:28:47.200Z,2.92
2022-12-18T05:31:16.157Z,3.05
2022-12-18T05:33:44.853Z,2.17
2022-12-18T05:36:13.664Z,2.17
2022-12-18T05:38:44.019Z,1.92
2022-12-18T05:41:12.718Z,1.98
2022-12-18T05:43:42.763Z,2.25
2022-12-18T05:46:14.653Z,1.40
2022-12-18T05:48:43.360Z,1.95
2022-12-18T05:51:13.851Z,1.15
2022-12-18T05:53:44.143Z,1.30
2022-12-18T05:56:16.969Z,1.48
2022-12-18T05:58:45.883Z,1.02
2022-12-18T06:01:16.716Z,1.17
2022-12-18T06:03:46.008Z,1.10
2022-12-18T06:06:19.665Z,1.10
2022-12-18T06:08:49.641Z,0.80
2022-12-18T06:11:20.967Z,0.65
2022-12-18T06:13:57.669Z,1.52
2022-12-18T06:16:27.100Z,1.10
2022-12-18T06:18:55.974Z,0.70
2022-12-18T06:21:24.351Z,0.95
2022-12-18T06:23:54.402Z,1.10
2022-12-18T06:26:27.833Z,1.00
2022-12-18T06:28:56.825Z,0.75
2022-12-18T06:31:25.854Z,0.73
2022-12-18T06:33:54.559Z,0.85
2022-12-18T06:36:23.119Z,1.50
2022-12-18T06:38:51.817Z,0.55
2022-12-18T06:41:23.446Z,0.60
2022-12-18T06:43:55.573Z,0.75
2022-12-18T06:46:26.655Z,0.52
2022-12-18T06:48:55.083Z,0.75
2022-12-18T06:51:25.029Z,0.65
2022-12-18T06:53:53.500Z,0.60
2022-12-18T06:56:24.371Z,0.90
2022-12-18T06:58:53.031Z,0.85
2022-12-18T07:01:21.692Z,1.13
2022-12-18T07:03:54.579Z,1.23
2022-12-18T07:06:25.005Z,1.10
2022-12-18T07:08:54.456Z,1.80
2022-12-18T07:11:24.388Z,1.40
2022-12-18T07:13:52.866Z,1.25
2022-12-18T07:16:25.531Z,2.10
2022-12-18T07:18:54.418Z,2.95
2022-12-18T07:21:23.955Z,1.63
2022-12-18T07:23:52.753Z,1.95
2022-12-18T07:26:24.377Z,1.60
2022-12-18T07:28:56.947Z,1.60
2022-12-18T07:31:26.003Z,1.50
2022-12-18T07:33:55.116Z,1.65
2022-12-18T07:36:26.139Z,1.67
2022-12-18T07:38:54.767Z,2.15
2022-12-18T07:41:24.572Z,2.33
2022-12-18T07:43:52.926Z,1.77
2022-12-18T07:46:22.200Z,2.35
2022-12-18T07:48:50.637Z,2.50
2022-12-18T07:51:20.194Z,2.00
2022-12-18T07:53:51.983Z,1.73
2022-12-18T07:56:30.320Z,1.38
2022-12-18T07:59:03.864Z,1.73
2022-12-18T08:01:32.625Z,1.70
2022-12-18T08:04:01.198Z,1.50
2022-12-18T08:06:29.527Z,2.33
2022-12-18T08:08:59.139Z,2.63
2022-12-18T08:11:29.171Z,2.35
2022-12-18T08:13:58.122Z,5.90
2022-12-18T08:16:28.437Z,15.63
2022-12-18T08:18:57.162Z,15.07
2022-12-18T08:21:27.426Z,11.90
2022-12-18T08:23:57.991Z,6.88
2022-12-18T08:26:28.244Z,13.70
2022-12-18T08:28:57.386Z,13.25
2022-12-18T08:31:28.228Z,15.73
2022-12-18T08:33:57.583Z,6.43
2022-12-18T08:36:27.764Z,8.32
2022-12-18T08:38:56.811Z,9.50
2022-12-18T08:41:25.487Z,8.02
2022-12-18T08:44:11.025Z,6.20
2022-12-18T08:46:43.228Z,8.60
2022-12-18T08:49:12.689Z,25.85
2022-12-18T08:51:41.747Z,12.05
2022-12-18T08:54:13.180Z,15.18
2022-12-18T08:56:41.662Z,9.23
2022-12-18T08:59:17.551Z,11.75
2022-12-18T09:01:50.669Z,7.25
2022-12-18T09:04:19.560Z,6.75
2022-12-18T09:06:49.029Z,5.53
2022-12-18T09:09:17.349Z,7.13
2022-12-18T09:11:45.943Z,10.05
2022-12-18T09:14:14.561Z,5.07
2022-12-18T09:16:42.994Z,3.85
2022-12-18T09:19:13.316Z,3.22
2022-12-18T09:21:47.484Z,3.28
2022-12-18T09:24:16.999Z,4.78
2022-12-18T09:26:47.539Z,5.95
2022-12-18T09:29:18.865Z,3.67
2022-12-18T09:31:47.523Z,2.60
2022-12-18T09:34:17.655Z,1.92
2022-12-18T09:36:46.182Z,1.77
2022-12-18T09:39:15.803Z,2.03
2022-12-18T09:41:48.561Z,1.98
2022-12-18T09:44:24.014Z,2.15
2022-12-18T09:46:58.230Z,2.22
2022-12-18T09:49:31.644Z,2.30
2022-12-18T09:52:06.314Z,1.90
2022-12-18T09:54:38.373Z,2.42
2022-12-18T09:57:07.018Z,2.90
2022-12-18T09:59:39.193Z,3.30
2022-12-18T10:02:23.611Z,1.67
2022-12-18T10:05:03.662Z,2.83
2022-12-18T10:07:42.513Z,3.03
2022-12-18T10:10:21.933Z,3.25
2022-12-18T10:13:04.102Z,2.83
2022-12-18T10:15:38.767Z,3.20
2022-12-18T10:18:22.119Z,3.85
2022-12-18T10:20:55.556Z,4.05
2022-12-18T10:23:29.909Z,5.03
2022-12-18T10:26:04.103Z,2.40
2022-12-18T10:28:34.250Z,2.50
2022-12-18T10:31:03.043Z,2.97
2022-12-18T10:33:33.649Z,4.53
2022-12-18T10:36:04.351Z,3.90
2022-12-18T10:38:34.144Z,2.30
2022-12-18T10:41:05.677Z,2.72
2022-12-18T10:43:35.824Z,1.83
2022-12-18T10:46:15.694Z,1.42
2022-12-18T10:48:53.774Z,1.25
2022-12-18T10:51:27.275Z,1.65
2022-12-18T10:54:03.779Z,1.50
2022-12-18T10:56:35.820Z,0.60
2022-12-18T10:59:06.946Z,1.35
2022-12-18T11:01:50.081Z,2.00
2022-12-18T11:04:24.763Z,2.42
2022-12-18T11:07:02.340Z,1.33
2022-12-18T11:09:33.339Z,1.25
2022-12-18T11:12:04.222Z,1.42
2022-12-18T11:14:35.768Z,1.67
2022-12-18T11:19:57.474Z,1.40
2022-12-18T11:22:30.250Z,1.00
2022-12-18T11:25:30.836Z,1.30
2022-12-18T11:27:51.900Z,1.23
2022-12-18T11:30:25.408Z,1.02
2022-12-18T11:32:56.652Z,1.42
2022-12-18T11:35:32.747Z,1.50
2022-12-18T11:38:13.457Z,2.10
2022-12-18T11:40:46.500Z,1.48
2022-12-18T11:43:19.392Z,1.50
2022-12-18T11:45:55.456Z,1.90
2022-12-18T11:48:28.387Z,1.40
2022-12-18T11:50:59.654Z,1.60
2022-12-18T11:53:30.448Z,2.22
2022-12-18T11:56:09.148Z,1.50
2022-12-18T11:58:59.955Z,1.42
2022-12-18T12:01:44.490Z,1.20
2022-12-18T12:04:53.031Z,1.58
2022-12-18T12:07:35.788Z,1.48
2022-12-18T12:10:18.763Z,1.80
2022-12-18T12:13:12.904Z,1.70
2022-12-18T12:15:50.348Z,1.33
2022-12-18T12:18:30.987Z,1.35
2022-12-18T12:21:08.710Z,1.00
2022-12-18T12:23:46.171Z,0.93
2022-12-18T12:26:25.293Z,0.70
2022-12-18T12:29:10.659Z,1.10
2022-12-18T12:32:00.705Z,1.10
2022-12-18T12:34:36.441Z,0.80
2022-12-18T12:37:17.234Z,0.90
2022-12-18T12:39:48.521Z,1.20
2022-12-18T12:42:42.580Z,1.50
2022-12-18T12:45:18.793Z,1.42
2022-12-18T12:47:50.448Z,1.40
2022-12-18T12:50:22.206Z,1.38
2022-12-18T12:52:56.103Z,1.40
2022-12-18T12:55:26.630Z,1.55
2022-12-18T12:58:07.173Z,2.45
2022-12-18T13:00:42.374Z,2.15
2022-12-18T13:03:18.002Z,1.60
2022-12-18T13:05:52.372Z,2.28
2022-12-18T13:08:26.812Z,1.55
2022-12-18T13:13:45.003Z,1.65
2022-12-18T13:14:23.225Z,1.40
2022-12-18T13:16:53.092Z,1.75
2022-12-18T13:19:26.597Z,1.40
2022-12-18T13:21:57.383Z,0.80
2022-12-18T13:24:28.703Z,1.08
2022-12-18T13:26:57.672Z,1.42
2022-12-18T13:29:47.502Z,1.40
2022-12-18T13:32:24.039Z,1.58
2022-12-18T13:35:26.244Z,1.40
2022-12-18T13:37:56.483Z,3.67
2022-12-18T13:41:00.118Z,1.00
2022-12-18T13:43:39.925Z,1.07
2022-12-18T13:46:22.308Z,1.20
2022-12-18T13:48:55.580Z,1.42
2022-12-18T13:51:26.040Z,0.90
2022-12-18T13:53:57.753Z,0.85
2022-12-18T13:56:29.396Z,0.80
2022-12-18T13:59:15.732Z,0.95
2022-12-18T14:01:48.635Z,0.82
2022-12-18T14:04:24.042Z,0.98
2022-12-18T14:06:55.677Z,1.70
2022-12-18T14:09:28.101Z,1.27
2022-12-18T14:14:50.258Z,1.42
2022-12-18T14:17:23.206Z,2.70
2022-12-18T14:19:53.601Z,1.30
2022-12-18T14:22:28.938Z,1.77
2022-12-18T14:25:16.805Z,1.30
2022-12-18T14:27:46.673Z,1.10
2022-12-18T14:30:33.184Z,0.77
2022-12-18T14:33:08.573Z,1.33
2022-12-18T14:35:39.184Z,1.20
2022-12-18T14:38:25.919Z,1.58
2022-12-18T14:41:01.528Z,2.50
2022-12-18T14:43:31.587Z,2.42
2022-12-18T14:46:01.122Z,1.27
2022-12-18T14:48:42.191Z,1.50
2022-12-18T14:51:20.014Z,1.27
2022-12-18T14:53:54.587Z,1.02
2022-12-18T14:56:25.433Z,1.45
2022-12-18T14:58:57.130Z,1.00
2022-12-18T15:01:29.656Z,1.30
2022-12-18T15:04:01.663Z,1.00
2022-12-18T15:06:34.341Z,1.70
2022-12-18T15:09:04.438Z,2.00
2022-12-18T15:11:45.878Z,1.20
2022-12-18T15:14:37.173Z,1.30
2022-12-18T15:17:09.376Z,0.95
2022-12-18T15:19:42.422Z,1.00
2022-12-18T15:22:23.617Z,0.90
2022-12-18T15:24:52.813Z,1.10
2022-12-18T15:27:28.304Z,1.13
2022-12-18T15:30:21.698Z,1.10
2022-12-18T15:32:52.766Z,1.30
2022-12-18T15:35:24.490Z,0.95
2022-12-18T15:37:53.764Z,1.17
2022-12-18T15:40:25.027Z,2.55
2022-12-18T15:43:14.118Z,0.82
2022-12-18T15:45:42.461Z,1.55
2022-12-18T15:48:22.816Z,1.20
2022-12-18T15:50:56.544Z,1.20
2022-12-18T15:53:25.817Z,1.02
2022-12-18T15:56:11.595Z,1.10
2022-12-18T15:58:40.785Z,1.00
2022-12-18T16:01:11.199Z,1.17
2022-12-18T16:03:40.107Z,0.80
2022-12-18T16:06:11.933Z,0.80
2022-12-18T16:08:40.303Z,0.90
2022-12-18T16:11:39.092Z,0.88
2022-12-18T16:14:15.087Z,0.90
2022-12-18T16:16:44.785Z,1.05
2022-12-18T16:19:13.386Z,0.93
2022-12-18T16:21:43.339Z,1.20
2022-12-18T16:24:17.417Z,0.95
2022-12-18T16:26:46.348Z,1.27
2022-12-18T16:29:14.843Z,0.95
2022-12-18T16:31:43.482Z,0.90
2022-12-18T16:34:16.005Z,0.70
2022-12-18T16:36:45.876Z,1.35
2022-12-18T16:39:14.239Z,1.63
2022-12-18T16:41:42.637Z,1.08
2022-12-18T16:44:11.335Z,1.58
2022-12-18T16:46:40.203Z,0.90
2022-12-18T16:49:08.710Z,0.80
2022-12-18T16:51:37.252Z,1.15
2022-12-18T16:54:10.294Z,1.00
2022-12-18T16:56:41.043Z,0.98
2022-12-18T16:59:10.164Z,1.10
2022-12-18T17:01:38.627Z,0.80
2022-12-18T17:04:08.287Z,1.10
2022-12-18T17:06:44.249Z,0.88
2022-12-18T17:09:16.191Z,1.08
2022-12-18T17:11:45.553Z,1.20
2022-12-18T17:14:17.311Z,1.20
2022-12-18T17:16:45.849Z,1.00
2022-12-18T17:19:17.452Z,1.17
2022-12-18T17:21:46.822Z,1.48
2022-12-18T17:24:16.843Z,1.20
2022-12-18T17:26:46.396Z,1.23
2022-12-18T17:29:18.410Z,1.75
2022-12-18T17:31:48.218Z,1.98
2022-12-18T17:34:17.325Z,1.50
2022-12-18T17:36:45.793Z,1.08
2022-12-18T17:39:20.574Z,1.48
2022-12-18T17:41:50.268Z,1.52
2022-12-18T17:44:19.807Z,1.10
2022-12-18T17:46:48.260Z,1.40
2022-12-18T17:49:16.763Z,2.75
2022-12-18T17:51:45.210Z,1.27
2022-12-18T17:54:13.649Z,1.60
2022-12-18T17:56:43.435Z,1.02
2022-12-18T17:59:12.306Z,1.65
2022-12-18T18:01:44.387Z,1.48
2022-12-18T18:04:14.612Z,1.45
2022-12-18T18:06:43.019Z,1.77
2022-12-18T18:09:16.860Z,1.52
2022-12-18T18:12:04.352Z,1.60
2022-12-18T18:14:33.590Z,1.60
2022-12-18T18:17:04.795Z,2.10
2022-12-18T18:19:34.863Z,2.53
2022-12-18T18:22:03.640Z,2.08
2022-12-18T18:24:33.236Z,1.48
2022-12-18T18:27:02.986Z,1.60
2022-12-18T18:29:31.671Z,1.98
2022-12-18T18:32:00.642Z,1.63
2022-12-18T18:34:30.960Z,2.03
2022-12-18T18:37:02.927Z,2.03
2022-12-18T18:39:31.479Z,2.10
2022-12-18T18:41:59.963Z,2.63
2022-12-18T18:44:29.791Z,2.05
2022-12-18T18:46:59.082Z,2.83
2022-12-18T18:49:28.922Z,2.13
2022-12-18T18:51:59.501Z,3.55
2022-12-18T18:54:28.144Z,2.10
2022-12-18T18:57:19.417Z,2.40
2022-12-18T18:59:47.919Z,2.08
2022-12-18T19:02:17.635Z,2.65
2022-12-18T19:04:46.890Z,2.45
2022-12-18T19:07:26.152Z,2.60
2022-12-18T19:12:49.876Z,2.55
2022-12-18T19:15:19.817Z,2.63
2022-12-18T19:17:48.237Z,2.47
2022-12-18T19:20:17.023Z,2.38
2022-12-18T19:22:52.188Z,2.58
2022-12-18T19:25:26.961Z,2.60
2022-12-18T19:28:04.147Z,2.38
2022-12-18T19:30:40.421Z,3.05
2022-12-18T19:33:33.990Z,2.50
2022-12-18T19:35:57.264Z,3.00
2022-12-18T19:38:25.693Z,3.00
2022-12-18T19:40:55.027Z,2.92
2022-12-18T19:43:24.165Z,2.58
2022-12-18T19:45:57.587Z,2.58
2022-12-18T19:48:25.978Z,4.55
2022-12-18T19:50:54.355Z,4.45
2022-12-18T19:53:22.917Z,3.22
2022-12-18T19:55:51.372Z,3.13
2022-12-18T19:58:19.709Z,3.13
2022-12-18T20:00:50.779Z,2.95
2022-12-18T20:03:28.693Z,3.33
2022-12-18T20:06:10.288Z,3.65
2022-12-18T20:08:38.761Z,2.60
2022-12-18T20:11:08.290Z,2.83
2022-12-18T20:13:36.729Z,3.17
2022-12-18T20:16:06.165Z,2.65
2022-12-18T20:18:36.000Z,3.20
2022-12-18T20:21:08.251Z,2.60
2022-12-18T20:23:39.451Z,2.88
2022-12-18T20:26:08.774Z,3.00
2022-12-18T20:28:37.230Z,2.85
2022-12-18T20:31:10.412Z,3.08
2022-12-18T20:33:41.600Z,3.00
2022-12-18T20:36:15.283Z,2.85
2022-12-18T20:38:45.472Z,2.92
2022-12-18T20:41:18.894Z,3.08
2022-12-18T20:43:47.756Z,3.40
2022-12-18T20:46:18.461Z,2.90
2022-12-18T20:48:49.034Z,3.47
2022-12-18T20:51:19.224Z,3.20
2022-12-18T20:53:48.187Z,3.10
2022-12-18T20:56:21.349Z,2.60
2022-12-18T21:01:25.291Z,2.80
2022-12-18T21:03:55.731Z,3.35
2022-12-18T21:06:25.620Z,3.20
2022-12-18T21:08:53.955Z,3.30
2022-12-18T21:11:48.079Z,5.75
2022-12-18T21:14:18.707Z,3.83
2022-12-18T21:16:47.508Z,3.50
2022-12-18T21:19:19.675Z,3.08
2022-12-18T21:21:48.588Z,3.53
2022-12-18T21:24:17.509Z,3.40
2022-12-18T21:26:47.265Z,3.42
2022-12-18T21:29:18.743Z,3.30
2022-12-18T21:31:48.135Z,3.42
2022-12-18T21:34:20.158Z,4.57
2022-12-18T21:36:49.660Z,3.22
2022-12-18T21:39:18.330Z,3.25
2022-12-18T21:42:06.936Z,3.42
2022-12-18T21:44:40.108Z,3.50
2022-12-18T21:47:22.367Z,3.15
2022-12-18T21:49:54.372Z,3.22
2022-12-18T21:52:31.641Z,3.50
2022-12-18T21:55:06.657Z,3.50
2022-12-18T21:57:37.169Z,3.97
2022-12-18T22:00:06.833Z,3.35
2022-12-18T22:02:35.398Z,3.72
2022-12-18T22:05:05.808Z,3.35
2022-12-18T22:07:34.186Z,3.80
2022-12-18T22:10:02.800Z,3.28
2022-12-18T22:12:43.901Z,2.97
2022-12-18T22:15:21.224Z,3.90
2022-12-18T22:17:54.415Z,3.17
2022-12-18T22:20:30.276Z,3.60
2022-12-18T22:22:59.062Z,3.47
2022-12-18T22:25:31.248Z,3.60
2022-12-18T22:28:16.788Z,3.45
2022-12-18T22:30:45.166Z,3.42
2022-12-18T22:33:13.573Z,3.08
2022-12-18T22:35:43.486Z,3.33
2022-12-18T22:38:12.148Z,3.80
2022-12-18T22:40:40.624Z,3.42
2022-12-18T22:43:09.069Z,3.13
2022-12-18T22:45:38.429Z,3.45
2022-12-18T22:48:07.638Z,3.45
2022-12-18T22:50:36.003Z,3.55
2022-12-18T22:53:07.983Z,2.30
2022-12-18T22:55:36.544Z,3.20
2022-12-18T22:58:05.295Z,2.88
2022-12-18T23:00:33.858Z,3.15
2022-12-18T23:03:02.471Z,3.70
2022-12-18T23:05:32.133Z,3.85
2022-12-18T23:08:00.888Z,3.53
2022-12-18T23:10:30.960Z,4.43
2022-12-18T23:12:59.338Z,4.75
2022-12-18T23:15:28.635Z,4.80
2022-12-18T23:17:59.304Z,4.20
2022-12-18T23:20:28.787Z,4.03
2022-12-18T23:22:57.262Z,4.20
2022-12-18T23:25:25.951Z,4.55
2022-12-18T23:27:55.721Z,4.70
2022-12-18T23:30:24.036Z,4.57
2022-12-18T23:32:52.397Z,3.70
2022-12-18T23:35:20.898Z,4.90
2022-12-18T23:37:58.700Z,4.20
2022-12-18T23:40:28.097Z,3.83
2022-12-18T23:42:57.947Z,3.40
2022-12-18T23:45:26.230Z,3.90
2022-12-18T23:47:54.939Z,3.70
2022-12-18T23:50:29.073Z,3.15
2022-12-18T23:53:05.591Z,3.38
2022-12-18T23:55:35.882Z,3.65
2022-12-18T23:58:05.693Z,3.50
